sensor_id;sensor_type;location;lat;lon;timestamp;pressure;altitude;pressure_sealevel;temperature;humidity
74881;BME280;63427;49.654;6.596;2023-12-20T00:01:58;99812.58;;;8.95;46.13
74881;BME280;63427;49.654;6.596;2023-12-20T00:04:23;99810.09;;;9.44;45.57
74881;BME280;63427;49.654;6.596;2023-12-20T00:06:49;99805.97;;;8.99;46.83
74881;BME280;63427;49.654;6.596;2023-12-20T00:09:15;99809.85;;;8.18;47.86
74881;BME280;63427;49.654;6.596;2023-12-20T00:11:40;99805.24;;;8.99;47.75
74881;BME280;63427;49.654;6.596;2023-12-20T00:14:06;99807.80;;;8.79;47.01
74881;BME280;63427;49.654;6.596;2023-12-20T00:16:31;99813.17;;;8.82;46.77
74881;BME280;63427;49.654;6.596;2023-12-20T00:18:58;99815.74;;;8.42;46.84
74881;BME280;63427;49.654;6.596;2023-12-20T00:21:23;99814.18;;;8.58;47.51
74881;BME280;63427;49.654;6.596;2023-12-20T00:23:48;99810.41;;;8.40;47.89
74881;BME280;63427;49.654;6.596;2023-12-20T00:26:14;99806.90;;;8.82;47.33
74881;BME280;63427;49.654;6.596;2023-12-20T00:28:40;99812.30;;;8.69;47.36
74881;BME280;63427;49.654;6.596;2023-12-20T00:31:05;99807.49;;;8.42;48.03
74881;BME280;63427;49.654;6.596;2023-12-20T00:33:31;99806.38;;;8.81;47.47
74881;BME280;63427;49.654;6.596;2023-12-20T00:35:57;99815.23;;;9.18;46.54
74881;BME280;63427;49.654;6.596;2023-12-20T00:38:22;99816.46;;;9.32;46.84
74881;BME280;63427;49.654;6.596;2023-12-20T00:40:48;99810.95;;;8.93;46.93
74881;BME280;63427;49.654;6.596;2023-12-20T00:43:14;99803.07;;;8.96;47.04
74881;BME280;63427;49.654;6.596;2023-12-20T00:48:06;99803.11;;;9.38;46.20
74881;BME280;63427;49.654;6.596;2023-12-20T00:52:56;99801.22;;;8.36;47.10
74881;BME280;63427;49.654;6.596;2023-12-20T00:55:22;99811.91;;;9.38;45.95
74881;BME280;63427;49.654;6.596;2023-12-20T00:57:48;99824.21;;;9.33;46.02
74881;BME280;63427;49.654;6.596;2023-12-20T01:00:14;99822.59;;;9.39;46.08
74881;BME280;63427;49.654;6.596;2023-12-20T01:02:39;99815.98;;;8.89;46.33
74881;BME280;63427;49.654;6.596;2023-12-20T01:05:05;99812.39;;;9.60;46.17
74881;BME280;63427;49.654;6.596;2023-12-20T01:07:30;99805.41;;;8.86;46.10
74881;BME280;63427;49.654;6.596;2023-12-20T01:09:56;99810.04;;;9.11;45.70
74881;BME280;63427;49.654;6.596;2023-12-20T01:12:21;99791.04;;;9.21;46.10
74881;BME280;63427;49.654;6.596;2023-12-20T01:14:47;99794.41;;;8.71;46.71
74881;BME280;63427;49.654;6.596;2023-12-20T01:17:13;99798.58;;;8.71;47.38
74881;BME280;63427;49.654;6.596;2023-12-20T01:24:35;99812.78;;;9.20;46.58
74881;BME280;63427;49.654;6.596;2023-12-20T01:26:55;99811.39;;;9.33;46.39
74881;BME280;63427;49.654;6.596;2023-12-20T01:29:21;99803.68;;;9.21;46.17
74881;BME280;63427;49.654;6.596;2023-12-20T01:31:46;99807.55;;;9.03;46.45
74881;BME280;63427;49.654;6.596;2023-12-20T01:34:12;99809.28;;;9.35;46.23
74881;BME280;63427;49.654;6.596;2023-12-20T01:36:38;99812.87;;;8.84;46.71
74881;BME280;63427;49.654;6.596;2023-12-20T01:39:03;99804.37;;;8.71;46.84
74881;BME280;63427;49.654;6.596;2023-12-20T01:41:29;99802.19;;;8.47;47.48
74881;BME280;63427;49.654;6.596;2023-12-20T01:43:55;99814.12;;;9.30;46.23
74881;BME280;63427;49.654;6.596;2023-12-20T01:46:21;99816.95;;;9.17;46.52
74881;BME280;63427;49.654;6.596;2023-12-20T01:48:47;99826.09;;;9.35;46.07
74881;BME280;63427;49.654;6.596;2023-12-20T01:51:12;99820.76;;;9.23;45.98
74881;BME280;63427;49.654;6.596;2023-12-20T02:03:20;99820.01;;;9.32;45.00
74881;BME280;63427;49.654;6.596;2023-12-20T02:05:47;99819.26;;;9.51;44.86
74881;BME280;63427;49.654;6.596;2023-12-20T02:08:12;99819.70;;;9.45;45.01
74881;BME280;63427;49.654;6.596;2023-12-20T02:10:37;99824.88;;;9.21;45.47
74881;BME280;63427;49.654;6.596;2023-12-20T02:13:04;99831.75;;;9.21;45.38
74881;BME280;63427;49.654;6.596;2023-12-20T02:15:28;99838.24;;;9.44;45.02
74881;BME280;63427;49.654;6.596;2023-12-20T02:17:54;99836.28;;;9.13;45.22
74881;BME280;63427;49.654;6.596;2023-12-20T02:20:19;99837.76;;;9.45;44.95
74881;BME280;63427;49.654;6.596;2023-12-20T02:22:45;99835.65;;;9.63;44.84
74881;BME280;63427;49.654;6.596;2023-12-20T02:25:11;99841.25;;;9.49;44.86
74881;BME280;63427;49.654;6.596;2023-12-20T02:27:36;99848.36;;;9.32;45.39
74881;BME280;63427;49.654;6.596;2023-12-20T02:30:02;99850.23;;;9.36;44.96
74881;BME280;63427;49.654;6.596;2023-12-20T02:32:28;99848.72;;;9.26;45.28
74881;BME280;63427;49.654;6.596;2023-12-20T02:34:54;99846.75;;;9.38;45.31
74881;BME280;63427;49.654;6.596;2023-12-20T02:37:19;99847.86;;;9.48;45.21
74881;BME280;63427;49.654;6.596;2023-12-20T02:39:45;99843.76;;;9.45;45.13
74881;BME280;63427;49.654;6.596;2023-12-20T02:42:10;99841.68;;;9.38;45.23
74881;BME280;63427;49.654;6.596;2023-12-20T02:44:36;99839.84;;;9.38;45.46
74881;BME280;63427;49.654;6.596;2023-12-20T02:47:01;99843.56;;;8.94;45.88
74881;BME280;63427;49.654;6.596;2023-12-20T02:49:27;99842.79;;;8.85;45.90
74881;BME280;63427;49.654;6.596;2023-12-20T02:51:53;99849.31;;;9.34;46.20
74881;BME280;63427;49.654;6.596;2023-12-20T02:54:19;99856.26;;;9.38;46.18
74881;BME280;63427;49.654;6.596;2023-12-20T02:56:45;99851.58;;;9.05;46.50
74881;BME280;63427;49.654;6.596;2023-12-20T02:59:10;99851.26;;;9.03;46.44
74881;BME280;63427;49.654;6.596;2023-12-20T03:01:36;99860.62;;;8.97;46.88
74881;BME280;63427;49.654;6.596;2023-12-20T03:04:01;99864.55;;;9.15;46.72
74881;BME280;63427;49.654;6.596;2023-12-20T03:06:27;99875.63;;;8.85;46.37
74881;BME280;63427;49.654;6.596;2023-12-20T03:08:52;99875.96;;;9.32;45.74
74881;BME280;63427;49.654;6.596;2023-12-20T03:11:18;99877.42;;;9.65;45.65
74881;BME280;63427;49.654;6.596;2023-12-20T03:13:44;99890.15;;;9.44;45.87
74881;BME280;63427;49.654;6.596;2023-12-20T03:16:09;99893.32;;;9.31;45.58
74881;BME280;63427;49.654;6.596;2023-12-20T03:18:35;99891.05;;;9.07;45.77
74881;BME280;63427;49.654;6.596;2023-12-20T03:21:01;99890.60;;;9.19;45.70
74881;BME280;63427;49.654;6.596;2023-12-20T03:23:26;99897.10;;;9.45;45.04
74881;BME280;63427;49.654;6.596;2023-12-20T03:25:52;99909.32;;;9.17;45.10
74881;BME280;63427;49.654;6.596;2023-12-20T03:28:17;99911.80;;;9.61;45.02
74881;BME280;63427;49.654;6.596;2023-12-20T03:30:43;99916.73;;;9.10;44.63
74881;BME280;63427;49.654;6.596;2023-12-20T03:33:08;99919.34;;;9.22;44.11
74881;BME280;63427;49.654;6.596;2023-12-20T03:35:34;99927.55;;;9.12;44.29
74881;BME280;63427;49.654;6.596;2023-12-20T03:38:00;99936.62;;;9.11;44.34
74881;BME280;63427;49.654;6.596;2023-12-20T03:40:25;99930.53;;;9.58;43.36
74881;BME280;63427;49.654;6.596;2023-12-20T03:42:51;99935.66;;;8.94;43.28
74881;BME280;63427;49.654;6.596;2023-12-20T03:45:16;99942.46;;;8.97;43.64
74881;BME280;63427;49.654;6.596;2023-12-20T03:47:42;99946.36;;;9.12;43.34
74881;BME280;63427;49.654;6.596;2023-12-20T03:50:08;99942.35;;;8.90;43.42
74881;BME280;63427;49.654;6.596;2023-12-20T03:52:33;99939.17;;;8.99;43.32
74881;BME280;63427;49.654;6.596;2023-12-20T03:54:59;99941.86;;;9.04;43.15
74881;BME280;63427;49.654;6.596;2023-12-20T03:57:25;99951.91;;;8.75;42.36
74881;BME280;63427;49.654;6.596;2023-12-20T03:59:50;99951.16;;;8.83;43.21
74881;BME280;63427;49.654;6.596;2023-12-20T04:02:16;99954.38;;;8.78;42.17
74881;BME280;63427;49.654;6.596;2023-12-20T04:04:42;99958.75;;;8.92;42.57
74881;BME280;63427;49.654;6.596;2023-12-20T04:07:07;99954.32;;;8.49;43.15
74881;BME280;63427;49.654;6.596;2023-12-20T04:09:33;99947.69;;;8.76;42.75
74881;BME280;63427;49.654;6.596;2023-12-20T04:11:58;99955.44;;;8.85;41.73
74881;BME280;63427;49.654;6.596;2023-12-20T04:14:24;99959.32;;;8.65;42.26
74881;BME280;63427;49.654;6.596;2023-12-20T04:16:50;99958.69;;;8.51;42.24
74881;BME280;63427;49.654;6.596;2023-12-20T04:19:15;99956.16;;;8.65;42.10
74881;BME280;63427;49.654;6.596;2023-12-20T04:21:41;99953.69;;;8.41;41.73
74881;BME280;63427;49.654;6.596;2023-12-20T04:24:07;99955.38;;;8.62;41.82
74881;BME280;63427;49.654;6.596;2023-12-20T04:26:34;99955.87;;;8.84;41.71
74881;BME280;63427;49.654;6.596;2023-12-20T04:28:58;99959.39;;;8.30;41.81
74881;BME280;63427;49.654;6.596;2023-12-20T04:31:24;99957.15;;;8.82;41.99
74881;BME280;63427;49.654;6.596;2023-12-20T04:33:50;99960.44;;;8.04;42.54
74881;BME280;63427;49.654;6.596;2023-12-20T04:36:15;99961.75;;;8.48;42.77
74881;BME280;63427;49.654;6.596;2023-12-20T04:38:41;99960.64;;;8.13;42.69
74881;BME280;63427;49.654;6.596;2023-12-20T04:41:06;99963.24;;;8.54;42.21
74881;BME280;63427;49.654;6.596;2023-12-20T04:43:32;99965.34;;;8.38;42.34
74881;BME280;63427;49.654;6.596;2023-12-20T04:45:57;99965.54;;;8.44;42.12
74881;BME280;63427;49.654;6.596;2023-12-20T04:48:23;99964.19;;;8.35;42.34
74881;BME280;63427;49.654;6.596;2023-12-20T04:50:49;99967.32;;;8.50;42.56
74881;BME280;63427;49.654;6.596;2023-12-20T04:53:15;99964.94;;;8.31;42.81
74881;BME280;63427;49.654;6.596;2023-12-20T04:55:41;99966.70;;;8.40;42.76
74881;BME280;63427;49.654;6.596;2023-12-20T04:58:06;99971.21;;;8.41;42.35
74881;BME280;63427;49.654;6.596;2023-12-20T05:02:57;99971.36;;;8.39;41.91
74881;BME280;63427;49.654;6.596;2023-12-20T05:05:23;99979.23;;;9.26;41.82
74881;BME280;63427;49.654;6.596;2023-12-20T05:07:49;99981.94;;;8.83;42.06
74881;BME280;63427;49.654;6.596;2023-12-20T05:10:15;99989.85;;;8.44;42.15
74881;BME280;63427;49.654;6.596;2023-12-20T05:12:40;99990.63;;;8.50;42.31
74881;BME280;63427;49.654;6.596;2023-12-20T05:15:07;99988.45;;;8.83;42.15
74881;BME280;63427;49.654;6.596;2023-12-20T05:17:32;99991.81;;;8.70;42.34
74881;BME280;63427;49.654;6.596;2023-12-20T05:19:57;99996.50;;;8.52;42.27
74881;BME280;63427;49.654;6.596;2023-12-20T05:22:23;99996.58;;;8.44;42.29
74881;BME280;63427;49.654;6.596;2023-12-20T05:24:49;99994.60;;;8.40;42.41
74881;BME280;63427;49.654;6.596;2023-12-20T05:27:15;99998.16;;;8.67;42.27
74881;BME280;63427;49.654;6.596;2023-12-20T05:34:32;99990.02;;;8.07;42.66
74881;BME280;63427;49.654;6.596;2023-12-20T05:36:58;99992.08;;;8.40;42.63
74881;BME280;63427;49.654;6.596;2023-12-20T05:39:23;100003.43;;;7.95;42.50
74881;BME280;63427;49.654;6.596;2023-12-20T05:41:49;100014.77;;;8.09;42.69
74881;BME280;63427;49.654;6.596;2023-12-20T05:44:14;100011.00;;;7.87;43.53
74881;BME280;63427;49.654;6.596;2023-12-20T05:46:40;100014.55;;;7.76;43.43
74881;BME280;63427;49.654;6.596;2023-12-20T05:49:06;100013.22;;;7.37;43.54
74881;BME280;63427;49.654;6.596;2023-12-20T05:51:31;100012.21;;;7.68;43.99
74881;BME280;63427;49.654;6.596;2023-12-20T05:53:57;100010.31;;;7.47;44.00
74881;BME280;63427;49.654;6.596;2023-12-20T05:56:23;100009.49;;;7.61;43.59
74881;BME280;63427;49.654;6.596;2023-12-20T05:58:48;100018.23;;;7.54;43.92
74881;BME280;63427;49.654;6.596;2023-12-20T06:01:14;100021.19;;;7.48;43.81
74881;BME280;63427;49.654;6.596;2023-12-20T06:03:41;100017.77;;;7.29;44.37
74881;BME280;63427;49.654;6.596;2023-12-20T06:06:06;100019.53;;;7.23;44.49
74881;BME280;63427;49.654;6.596;2023-12-20T06:08:31;100022.83;;;7.46;43.73
74881;BME280;63427;49.654;6.596;2023-12-20T06:10:57;100020.57;;;7.68;43.93
74881;BME280;63427;49.654;6.596;2023-12-20T06:18:14;100032.97;;;7.80;43.19
74881;BME280;63427;49.654;6.596;2023-12-20T06:20:40;100040.33;;;7.95;43.05
74881;BME280;63427;49.654;6.596;2023-12-20T06:23:06;100031.37;;;7.15;43.68
74881;BME280;63427;49.654;6.596;2023-12-20T06:25:31;100032.97;;;7.64;43.26
74881;BME280;63427;49.654;6.596;2023-12-20T06:27:57;100034.60;;;7.54;43.87
74881;BME280;63427;49.654;6.596;2023-12-20T06:30:23;100036.23;;;7.58;43.84
74881;BME280;63427;49.654;6.596;2023-12-20T06:32:49;100034.61;;;7.47;43.94
74881;BME280;63427;49.654;6.596;2023-12-20T06:35:14;100039.11;;;7.64;43.76
74881;BME280;63427;49.654;6.596;2023-12-20T06:37:40;100033.57;;;7.66;43.50
74881;BME280;63427;49.654;6.596;2023-12-20T06:40:07;100033.90;;;7.48;44.08
74881;BME280;63427;49.654;6.596;2023-12-20T06:42:31;100027.34;;;7.48;44.39
74881;BME280;63427;49.654;6.596;2023-12-20T06:44:57;100026.03;;;7.47;43.71
74881;BME280;63427;49.654;6.596;2023-12-20T06:47:22;100031.01;;;7.13;45.43
74881;BME280;63427;49.654;6.596;2023-12-20T06:49:48;100039.43;;;7.43;45.14
74881;BME280;63427;49.654;6.596;2023-12-20T06:52:14;100046.42;;;6.94;45.61
74881;BME280;63427;49.654;6.596;2023-12-20T06:54:39;100047.56;;;7.42;45.20
74881;BME280;63427;49.654;6.596;2023-12-20T06:57:05;100043.67;;;6.82;45.51
74881;BME280;63427;49.654;6.596;2023-12-20T06:59:30;100040.02;;;7.85;44.45
74881;BME280;63427;49.654;6.596;2023-12-20T07:01:56;100041.86;;;7.44;44.63
74881;BME280;63427;49.654;6.596;2023-12-20T07:04:22;100040.86;;;7.30;44.72
74881;BME280;63427;49.654;6.596;2023-12-20T07:06:47;100045.19;;;7.58;44.52
74881;BME280;63427;49.654;6.596;2023-12-20T07:11:57;100049.96;;;7.41;44.26
74881;BME280;63427;49.654;6.596;2023-12-20T07:14:05;100054.09;;;7.52;45.44
74881;BME280;63427;49.654;6.596;2023-12-20T07:16:30;100044.81;;;7.25;44.85
74881;BME280;63427;49.654;6.596;2023-12-20T07:18:56;100045.65;;;7.59;44.80
74881;BME280;63427;49.654;6.596;2023-12-20T07:21:22;100048.04;;;6.84;45.65
74881;BME280;63427;49.654;6.596;2023-12-20T07:23:48;100050.39;;;7.69;44.60
74881;BME280;63427;49.654;6.596;2023-12-20T07:26:13;100049.66;;;7.58;44.48
74881;BME280;63427;49.654;6.596;2023-12-20T07:28:39;100058.60;;;6.62;45.64
74881;BME280;63427;49.654;6.596;2023-12-20T07:31:04;100058.27;;;6.79;45.99
74881;BME280;63427;49.654;6.596;2023-12-20T07:33:30;100065.97;;;7.35;45.70
74881;BME280;63427;49.654;6.596;2023-12-20T07:35:56;100070.46;;;7.10;45.94
74881;BME280;63427;49.654;6.596;2023-12-20T07:38:22;100068.66;;;6.97;45.67
74881;BME280;63427;49.654;6.596;2023-12-20T07:40:47;100076.41;;;7.45;45.16
74881;BME280;63427;49.654;6.596;2023-12-20T07:45:38;100070.51;;;7.42;45.45
74881;BME280;63427;49.654;6.596;2023-12-20T07:48:06;100064.51;;;7.16;44.64
74881;BME280;63427;49.654;6.596;2023-12-20T07:50:30;100070.43;;;7.51;44.23
74881;BME280;63427;49.654;6.596;2023-12-20T07:52:55;100076.78;;;8.06;43.33
74881;BME280;63427;49.654;6.596;2023-12-20T07:55:22;100075.22;;;8.10;43.99
74881;BME280;63427;49.654;6.596;2023-12-20T07:57:47;100077.04;;;8.18;43.83
74881;BME280;63427;49.654;6.596;2023-12-20T08:00:13;100074.40;;;7.66;44.80
74881;BME280;63427;49.654;6.596;2023-12-20T08:02:38;100081.60;;;7.79;44.86
74881;BME280;63427;49.654;6.596;2023-12-20T08:05:04;100086.29;;;7.26;45.15
74881;BME280;63427;49.654;6.596;2023-12-20T08:07:29;100082.95;;;7.53;44.69
74881;BME280;63427;49.654;6.596;2023-12-20T08:09:55;100089.03;;;7.81;44.09
74881;BME280;63427;49.654;6.596;2023-12-20T08:12:20;100081.90;;;7.60;44.47
74881;BME280;63427;49.654;6.596;2023-12-20T08:14:46;100083.37;;;7.62;44.70
74881;BME280;63427;49.654;6.596;2023-12-20T08:17:12;100081.00;;;7.71;44.39
74881;BME280;63427;49.654;6.596;2023-12-20T08:19:37;100076.43;;;7.57;44.63
74881;BME280;63427;49.654;6.596;2023-12-20T08:22:03;100080.16;;;7.57;44.86
74881;BME280;63427;49.654;6.596;2023-12-20T08:24:30;100078.47;;;7.57;44.69
74881;BME280;63427;49.654;6.596;2023-12-20T08:26:53;100082.10;;;8.07;44.09
74881;BME280;63427;49.654;6.596;2023-12-20T08:29:19;100083.38;;;7.49;44.84
74881;BME280;63427;49.654;6.596;2023-12-20T08:31:46;100084.99;;;7.36;45.02
74881;BME280;63427;49.654;6.596;2023-12-20T08:34:21;100084.37;;;7.74;44.59
74881;BME280;63427;49.654;6.596;2023-12-20T08:36:36;100083.77;;;7.95;44.59
74881;BME280;63427;49.654;6.596;2023-12-20T08:39:02;100086.81;;;7.77;44.48
74881;BME280;63427;49.654;6.596;2023-12-20T08:43:53;100090.29;;;7.88;44.52
74881;BME280;63427;49.654;6.596;2023-12-20T08:46:18;100094.24;;;7.52;44.77
74881;BME280;63427;49.654;6.596;2023-12-20T08:48:46;100097.04;;;8.05;44.11
74881;BME280;63427;49.654;6.596;2023-12-20T08:51:10;100089.71;;;7.97;44.34
74881;BME280;63427;49.654;6.596;2023-12-20T08:53:36;100090.13;;;7.91;44.38
74881;BME280;63427;49.654;6.596;2023-12-20T08:56:01;100099.13;;;8.11;43.96
74881;BME280;63427;49.654;6.596;2023-12-20T08:58:27;100100.49;;;7.71;44.76
74881;BME280;63427;49.654;6.596;2023-12-20T09:00:52;100107.41;;;7.39;45.23
74881;BME280;63427;49.654;6.596;2023-12-20T09:03:18;100104.67;;;7.73;44.89
74881;BME280;63427;49.654;6.596;2023-12-20T09:05:46;100097.17;;;7.60;45.81
74881;BME280;63427;49.654;6.596;2023-12-20T09:08:09;100098.44;;;7.52;45.16
74881;BME280;63427;49.654;6.596;2023-12-20T09:10:35;100093.35;;;7.72;45.03
74881;BME280;63427;49.654;6.596;2023-12-20T09:13:01;100100.27;;;7.60;45.46
74881;BME280;63427;49.654;6.596;2023-12-20T09:15:28;100098.71;;;7.73;44.81
74881;BME280;63427;49.654;6.596;2023-12-20T09:17:51;100099.49;;;8.03;44.61
74881;BME280;63427;49.654;6.596;2023-12-20T09:20:17;100100.93;;;8.16;43.97
74881;BME280;63427;49.654;6.596;2023-12-20T09:22:42;100105.31;;;7.60;45.16
74881;BME280;63427;49.654;6.596;2023-12-20T09:25:10;100116.08;;;8.11;44.61
74881;BME280;63427;49.654;6.596;2023-12-20T09:27:33;100118.14;;;8.20;44.20
74881;BME280;63427;49.654;6.596;2023-12-20T09:29:59;100116.49;;;8.46;43.91
74881;BME280;63427;49.654;6.596;2023-12-20T09:32:25;100112.48;;;8.37;43.92
74881;BME280;63427;49.654;6.596;2023-12-20T09:37:16;100102.37;;;7.86;44.41
74881;BME280;63427;49.654;6.596;2023-12-20T09:39:41;100102.30;;;7.75;44.60
74881;BME280;63427;49.654;6.596;2023-12-20T09:42:07;100104.02;;;7.94;44.34
74881;BME280;63427;49.654;6.596;2023-12-20T09:44:33;100097.50;;;8.16;43.90
74881;BME280;63427;49.654;6.596;2023-12-20T09:46:58;100095.76;;;7.04;45.65
74881;BME280;63427;49.654;6.596;2023-12-20T09:49:23;100095.92;;;7.72;45.08
74881;BME280;63427;49.654;6.596;2023-12-20T09:56:39;100101.55;;;8.05;44.35
74881;BME280;63427;49.654;6.596;2023-12-20T09:59:05;100100.02;;;8.17;44.06
74881;BME280;63427;49.654;6.596;2023-12-20T10:01:31;100097.19;;;8.31;43.24
74881;BME280;63427;49.654;6.596;2023-12-20T10:03:56;100094.58;;;8.52;43.58
74881;BME280;63427;49.654;6.596;2023-12-20T10:06:21;100087.58;;;8.61;42.79
74881;BME280;63427;49.654;6.596;2023-12-20T10:08:47;100085.33;;;8.60;42.47
74881;BME280;63427;49.654;6.596;2023-12-20T10:11:12;100078.53;;;8.53;43.23
74881;BME280;63427;49.654;6.596;2023-12-20T10:18:29;100087.96;;;8.31;42.77
74881;BME280;63427;49.654;6.596;2023-12-20T10:20:55;100078.49;;;8.31;42.76
74881;BME280;63427;49.654;6.596;2023-12-20T10:40:20;100086.55;;;8.33;41.30
74881;BME280;63427;49.654;6.596;2023-12-20T10:42:46;100084.23;;;8.17;41.37
74881;BME280;63427;49.654;6.596;2023-12-20T10:45:11;100080.82;;;8.26;41.03
74881;BME280;63427;49.654;6.596;2023-12-20T10:47:37;100078.50;;;8.63;40.74
74881;BME280;63427;49.654;6.596;2023-12-20T10:50:05;100083.46;;;8.53;41.06
74881;BME280;63427;49.654;6.596;2023-12-20T10:52:29;100080.51;;;8.35;41.09
74881;BME280;63427;49.654;6.596;2023-12-20T10:57:19;100081.79;;;7.85;41.70
74881;BME280;63427;49.654;6.596;2023-12-20T10:59:45;100077.91;;;8.39;40.88
74881;BME280;63427;49.654;6.596;2023-12-20T11:09:35;100070.91;;;8.40;40.39
74881;BME280;63427;49.654;6.596;2023-12-20T11:12:01;100069.36;;;8.87;40.15
74881;BME280;63427;49.654;6.596;2023-12-20T11:26:30;100040.61;;;8.81;40.77
74881;BME280;63427;49.654;6.596;2023-12-20T11:28:50;100039.01;;;8.44;41.38
74881;BME280;63427;49.654;6.596;2023-12-20T11:31:16;100034.19;;;8.56;41.49
74881;BME280;63427;49.654;6.596;2023-12-20T11:33:42;100028.64;;;9.02;41.01
74881;BME280;63427;49.654;6.596;2023-12-20T11:36:13;100022.54;;;8.76;41.24
74881;BME280;63427;49.654;6.596;2023-12-20T11:38:37;100024.12;;;8.48;41.71
74881;BME280;63427;49.654;6.596;2023-12-20T11:41:00;100017.03;;;8.68;41.38
74881;BME280;63427;49.654;6.596;2023-12-20T11:45:50;100024.67;;;9.16;41.23
74881;BME280;63427;49.654;6.596;2023-12-20T11:48:15;100028.94;;;8.90;41.37
74881;BME280;63427;49.654;6.596;2023-12-20T11:50:41;100028.43;;;8.62;40.98
74881;BME280;63427;49.654;6.596;2023-12-20T11:53:07;100025.11;;;8.87;41.21
74881;BME280;63427;49.654;6.596;2023-12-20T11:55:34;100027.96;;;9.25;40.38
74881;BME280;63427;49.654;6.596;2023-12-20T11:57:58;100029.43;;;9.39;40.33
74881;BME280;63427;49.654;6.596;2023-12-20T12:00:24;100032.35;;;8.93;41.40
74881;BME280;63427;49.654;6.596;2023-12-20T12:02:58;100034.78;;;8.96;41.26
74881;BME280;63427;49.654;6.596;2023-12-20T12:07:41;100034.31;;;8.52;41.23
74881;BME280;63427;49.654;6.596;2023-12-20T12:10:07;100039.35;;;8.61;41.64
74881;BME280;63427;49.654;6.596;2023-12-20T12:12:32;100030.55;;;8.92;41.29
74881;BME280;63427;49.654;6.596;2023-12-20T12:15:01;100025.69;;;9.07;40.82
74881;BME280;63427;49.654;6.596;2023-12-20T12:17:23;100020.16;;;8.91;41.72
74881;BME280;63427;49.654;6.596;2023-12-20T12:19:49;100025.95;;;8.59;41.69
74881;BME280;63427;49.654;6.596;2023-12-20T12:24:41;100010.07;;;9.27;40.27
74881;BME280;63427;49.654;6.596;2023-12-20T12:27:07;100004.59;;;9.20;40.12
74881;BME280;63427;49.654;6.596;2023-12-20T12:29:31;100004.50;;;9.05;40.70
74881;BME280;63427;49.654;6.596;2023-12-20T12:31:57;99995.29;;;9.73;39.86
74881;BME280;63427;49.654;6.596;2023-12-20T12:34:23;99984.22;;;9.33;41.27
74881;BME280;63427;49.654;6.596;2023-12-20T12:36:49;99973.86;;;9.30;40.64
74881;BME280;63427;49.654;6.596;2023-12-20T12:39:14;99975.23;;;9.38;40.68
74881;BME280;63427;49.654;6.596;2023-12-20T12:41:40;99978.97;;;9.47;40.55
74881;BME280;63427;49.654;6.596;2023-12-20T12:44:05;99977.79;;;8.93;41.44
74881;BME280;63427;49.654;6.596;2023-12-20T12:46:34;99973.62;;;8.72;41.83
74881;BME280;63427;49.654;6.596;2023-12-20T12:48:56;99972.36;;;9.00;42.11
74881;BME280;63427;49.654;6.596;2023-12-20T12:51:22;99969.72;;;9.44;41.38
74881;BME280;63427;49.654;6.596;2023-12-20T12:53:47;99974.59;;;8.56;42.03
74881;BME280;63427;49.654;6.596;2023-12-20T12:56:14;99974.30;;;8.95;41.82
74881;BME280;63427;49.654;6.596;2023-12-20T12:58:39;99966.34;;;9.15;41.41
74881;BME280;63427;49.654;6.596;2023-12-20T13:01:04;99959.16;;;9.59;40.81
74881;BME280;63427;49.654;6.596;2023-12-20T13:03:35;99961.64;;;9.14;41.49
74881;BME280;63427;49.654;6.596;2023-12-20T13:05:55;99959.68;;;9.01;41.91
74881;BME280;63427;49.654;6.596;2023-12-20T13:08:21;99965.42;;;8.74;42.43
74881;BME280;63427;49.654;6.596;2023-12-20T13:10:46;99957.67;;;9.08;41.82
74881;BME280;63427;49.654;6.596;2023-12-20T13:13:12;99952.89;;;8.98;41.69
74881;BME280;63427;49.654;6.596;2023-12-20T13:15:38;99957.52;;;8.73;42.29
74881;BME280;63427;49.654;6.596;2023-12-20T13:18:04;99945.52;;;9.29;41.79
74881;BME280;63427;49.654;6.596;2023-12-20T13:23:02;99928.69;;;8.35;43.05
74881;BME280;63427;49.654;6.596;2023-12-20T13:25:20;99927.59;;;9.10;42.09
74881;BME280;63427;49.654;6.596;2023-12-20T13:27:46;99926.41;;;9.01;41.98
74881;BME280;63427;49.654;6.596;2023-12-20T13:30:12;99932.13;;;8.71;42.61
74881;BME280;63427;49.654;6.596;2023-12-20T13:32:37;99927.26;;;8.96;42.00
74881;BME280;63427;49.654;6.596;2023-12-20T13:35:03;99929.10;;;9.07;42.30
74881;BME280;63427;49.654;6.596;2023-12-20T13:37:28;99935.25;;;9.13;41.59
74881;BME280;63427;49.654;6.596;2023-12-20T13:42:19;99936.79;;;9.05;42.75
74881;BME280;63427;49.654;6.596;2023-12-20T13:44:45;99938.73;;;8.47;43.07
74881;BME280;63427;49.654;6.596;2023-12-20T13:47:11;99930.17;;;8.86;43.01
74881;BME280;63427;49.654;6.596;2023-12-20T13:49:36;99907.74;;;9.40;42.21
74881;BME280;63427;49.654;6.596;2023-12-20T13:52:02;99897.11;;;9.41;41.45
74881;BME280;63427;49.654;6.596;2023-12-20T13:54:27;99897.93;;;9.44;41.49
74881;BME280;63427;49.654;6.596;2023-12-20T13:56:53;99896.17;;;9.69;41.22
74881;BME280;63427;49.654;6.596;2023-12-20T13:59:19;99900.48;;;9.67;41.01
74881;BME280;63427;49.654;6.596;2023-12-20T14:01:44;99902.00;;;9.55;41.36
74881;BME280;63427;49.654;6.596;2023-12-20T14:04:18;99898.09;;;9.30;41.08
74881;BME280;63427;49.654;6.596;2023-12-20T14:06:35;99896.27;;;9.35;41.07
74881;BME280;63427;49.654;6.596;2023-12-20T14:09:01;99907.64;;;9.15;41.69
74881;BME280;63427;49.654;6.596;2023-12-20T14:11:27;99905.64;;;9.48;41.84
74881;BME280;63427;49.654;6.596;2023-12-20T14:13:52;99899.98;;;9.29;42.04
74881;BME280;63427;49.654;6.596;2023-12-20T14:16:18;99901.27;;;8.98;43.17
74881;BME280;63427;49.654;6.596;2023-12-20T14:18:43;99897.68;;;9.10;42.76
74881;BME280;63427;49.654;6.596;2023-12-20T14:21:09;99896.55;;;7.82;45.00
74881;BME280;63427;49.654;6.596;2023-12-20T14:23:34;99891.15;;;8.76;43.65
74881;BME280;63427;49.654;6.596;2023-12-20T14:26:00;99888.11;;;8.92;43.36
74881;BME280;63427;49.654;6.596;2023-12-20T14:28:26;99882.99;;;9.24;42.70
74881;BME280;63427;49.654;6.596;2023-12-20T14:30:51;99879.00;;;8.88;43.36
74881;BME280;63427;49.654;6.596;2023-12-20T14:33:16;99881.68;;;9.06;43.02
74881;BME280;63427;49.654;6.596;2023-12-20T14:35:43;99873.96;;;9.04;44.10
74881;BME280;63427;49.654;6.596;2023-12-20T14:38:07;99869.50;;;8.60;44.06